Time;durP1;ratioP1;P1;durP2;ratioP2;P2;SDS_P1;SDS_P2;PMS_P1;PMS_P2;Temp;Humidity;BMP_temperature;BMP_pressure;BME280_temperature;BME280_humidity;BME280_pressure;Samples;Min_cycle;Max_cycle;Signal;HPM_P1;HPM_P2
2023/05/11 00:00:29;;;;;;;;;5.00;4.00;;;;;16.45;100.00;101349.09;5001653;28;45390;-82
2023/05/11 00:02:54;;;;;;;;;8.00;4.67;;;;;16.48;100.00;101355.31;5023516;28;45352;-82
2023/05/11 00:05:19;;;;;;;;;5.33;4.00;;;;;16.47;100.00;101344.66;5012782;28;47649;-81
2023/05/11 00:07:45;;;;;;;;;3.33;3.33;;;;;16.47;100.00;101352.66;5025676;28;45529;-81
2023/05/11 00:10:10;;;;;;;;;4.67;3.67;;;;;16.47;100.00;101339.31;5000584;28;52697;-82
2023/05/11 00:12:36;;;;;;;;;4.67;3.00;;;;;16.46;100.00;101337.56;5004724;28;53480;-81
2023/05/11 00:15:01;;;;;;;;;4.00;4.00;;;;;16.43;100.00;101332.22;5026454;28;47341;-82
2023/05/11 00:17:27;;;;;;;;;6.67;4.00;;;;;16.44;100.00;101339.34;5016074;28;45492;-81
2023/05/11 00:19:52;;;;;;;;;4.00;4.00;;;;;16.44;100.00;101339.34;5026916;28;50428;-81
2023/05/11 00:22:17;;;;;;;;;5.67;4.00;;;;;16.45;100.00;101335.75;5020928;28;45339;-81
2023/05/11 00:24:43;;;;;;;;;3.67;3.67;;;;;16.44;100.00;101337.53;5025541;28;68856;-82
2023/05/11 00:27:08;;;;;;;;;6.67;3.67;;;;;16.44;100.00;101326.00;5026062;28;45324;-81
2023/05/11 00:29:34;;;;;;;;;4.00;3.00;;;;;16.44;100.00;101337.53;5025714;28;45788;-82
2023/05/11 00:31:59;;;;;;;;;4.33;3.00;;;;;16.45;100.00;101333.09;5015311;28;45335;-82
2023/05/11 00:34:25;;;;;;;;;2.67;2.67;;;;;16.45;100.00;101333.09;5022067;28;46878;-82
2023/05/11 00:36:51;;;;;;;;;2.00;2.00;;;;;16.43;100.00;101335.78;5015075;28;45452;-81
2023/05/11 00:39:17;;;;;;;;;6.33;3.33;;;;;16.41;100.00;101326.91;5003914;28;45454;-82
2023/05/11 00:41:42;;;;;;;;;6.00;3.00;;;;;16.43;100.00;101334.91;5023403;28;45526;-82
2023/05/11 00:44:08;;;;;;;;;2.33;2.33;;;;;16.40;100.00;101324.25;5014558;28;46059;-82
2023/05/11 00:46:33;;;;;;;;;2.00;2.00;;;;;16.41;100.00;101336.69;5014358;28;45503;-82
2023/05/11 00:48:59;;;;;;;;;4.67;4.00;;;;;16.38;100.00;101326.91;5014937;28;45352;-82
2023/05/11 00:51:25;;;;;;;;;5.00;3.00;;;;;16.38;100.00;101326.91;5015659;28;45507;-82
2023/05/11 00:53:50;;;;;;;;;5.00;2.00;;;;;16.38;100.00;101323.38;5017827;28;46553;-82
2023/05/11 00:56:16;;;;;;;;;3.00;3.00;;;;;16.37;100.00;101319.81;5029335;28;45462;-81
2023/05/11 00:58:41;;;;;;;;;1.00;1.00;;;;;16.36;100.00;101317.19;5011086;28;45607;-82
2023/05/11 01:01:06;;;;;;;;;4.33;2.00;;;;;16.35;100.00;101320.72;5020206;28;54595;-82
2023/05/11 01:03:33;;;;;;;;;4.33;2.00;;;;;16.33;100.00;101317.19;5013930;28;47837;-81
2023/05/11 01:06:13;;;;;;;;;3.33;3.00;;;;;16.33;100.00;101322.50;5030876;28;45491;-81
2023/05/11 01:08:46;;;;;;;;;6.00;3.00;;;;;16.30;100.00;101318.09;4999123;28;45505;-81
2023/05/11 01:11:20;;;;;;;;;2.00;2.00;;;;;16.28;100.00;101318.97;5016017;28;45361;-81
2023/05/11 01:13:52;;;;;;;;;2.67;2.67;;;;;16.26;100.00;101323.44;5020268;28;46689;-82
2023/05/11 01:16:19;;;;;;;;;2.00;2.00;;;;;16.21;100.00;101311.00;5015358;28;45459;-82
2023/05/11 01:18:58;;;;;;;;;5.33;3.00;;;;;16.19;100.00;101318.16;5016480;28;45386;-82
2023/05/11 01:21:26;;;;;;;;;4.67;3.00;;;;;16.15;100.00;101311.06;5018134;28;45502;-82
2023/05/11 01:24:08;;;;;;;;;5.00;3.00;;;;;16.17;100.00;101313.69;5008924;28;46452;-82
2023/05/11 01:27:01;;;;;;;;;4.33;2.00;;;;;16.14;100.00;101322.59;5022506;28;45566;-81
2023/05/11 01:29:46;;;;;;;;;3.33;2.00;;;;;16.10;100.00;101312.84;5019795;28;45413;-81
2023/05/11 01:32:26;;;;;;;;;2.33;1.00;;;;;16.08;100.00;101325.25;5010978;28;45325;-82
2023/05/11 01:35:05;;;;;;;;;2.33;2.00;;;;;16.04;100.00;101312.00;4999682;28;47371;-82
2023/05/11 01:37:31;;;;;;;;;3.00;2.00;;;;;16.03;100.00;101316.41;4992541;28;45487;-82
2023/05/11 01:40:00;;;;;;;;;2.33;1.00;;;;;16.02;100.00;101313.75;5007108;28;45445;-83
2023/05/11 01:42:37;;;;;;;;;1.33;1.33;;;;;16.03;100.00;101318.19;4991379;28;45547;-82
2023/05/11 01:45:05;;;;;;;;;2.00;2.00;;;;;16.02;100.00;101319.09;5020536;28;45805;-82
2023/05/11 01:47:31;;;;;;;;;3.33;2.00;;;;;16.02;100.00;101319.09;5029099;28;45495;-82
2023/05/11 01:49:58;;;;;;;;;5.00;2.00;;;;;16.02;100.00;101319.09;5019460;28;47363;-82
2023/05/11 01:52:24;;;;;;;;;3.67;1.00;;;;;16.02;100.00;101321.75;4997406;28;45439;-83
2023/05/11 01:54:51;;;;;;;;;1.33;1.33;;;;;16.00;100.00;101321.75;5012044;28;46452;-82
2023/05/11 01:57:17;;;;;;;;;3.00;1.67;;;;;15.97;100.00;101321.75;5015168;28;45369;-82
2023/05/11 01:59:43;;;;;;;;;1.67;1.67;;;;;15.97;100.00;101324.41;5018223;28;45705;-82
2023/05/11 02:02:09;;;;;;;;;3.00;1.00;;;;;15.95;100.00;101327.09;5025707;28;45336;-82
2023/05/11 02:04:36;;;;;;;;;2.00;0.67;;;;;15.95;100.00;101326.22;5018152;28;60185;-82
2023/05/11 02:07:02;;;;;;;;;2.33;1.00;;;;;15.93;100.00;101322.69;5020608;28;45351;-82
2023/05/11 02:09:29;;;;;;;;;1.00;1.00;;;;;15.93;100.00;101328.00;5001959;28;45617;-82
2023/05/11 02:11:56;;;;;;;;;1.33;1.33;;;;;15.92;100.00;101321.75;5005831;28;45320;-81
2023/05/11 02:14:23;;;;;;;;;3.33;2.00;;;;;15.95;100.00;101331.53;5003114;28;47355;-82
2023/05/11 02:16:49;;;;;;;;;3.00;1.00;;;;;15.96;100.00;101325.31;5017641;28;45419;-82
2023/05/11 02:19:15;;;;;;;;;3.67;2.33;;;;;15.97;100.00;101330.63;5023665;28;45487;-82
2023/05/11 02:21:42;;;;;;;;;1.00;1.00;;;;;15.98;100.00;101334.22;5007261;28;56451;-82
2023/05/11 02:24:08;;;;;;;;;1.00;1.00;;;;;15.96;100.00;101333.31;5026127;28;46105;-82
2023/05/11 02:26:34;;;;;;;;;3.67;1.33;;;;;15.96;100.00;101338.63;4999756;28;45507;-81
2023/05/11 02:28:59;;;;;;;;;3.00;1.67;;;;;15.97;100.00;101335.06;5022992;28;45542;-81
2023/05/11 02:31:28;;;;;;;;;1.00;1.00;;;;;15.95;100.00;101335.09;5021113;28;45415;-81
2023/05/11 02:33:57;;;;;;;;;1.00;1.00;;;;;15.94;100.00;101329.78;5018019;28;47203;-82
2023/05/11 02:36:24;;;;;;;;;3.00;2.00;;;;;15.96;100.00;101334.19;5021086;28;45479;-82
2023/05/11 02:38:55;;;;;;;;;2.00;2.00;;;;;15.95;100.00;101329.75;5017394;28;45487;-82
2023/05/11 02:41:25;;;;;;;;;2.00;2.00;;;;;15.94;100.00;101333.31;5010012;28;45570;-82
2023/05/11 02:43:51;;;;;;;;;1.00;1.00;;;;;15.96;100.00;101333.31;5023227;28;47352;-82
2023/05/11 02:46:19;;;;;;;;;4.67;1.33;;;;;15.94;100.00;101329.78;5021240;28;45440;-82
2023/05/11 02:48:50;;;;;;;;;3.33;2.00;;;;;15.90;100.00;101328.00;5016686;28;45413;-82
2023/05/11 02:51:16;;;;;;;;;1.00;1.00;;;;;15.90;100.00;101331.56;5004451;28;45467;-82
2023/05/11 02:53:44;;;;;;;;;2.00;1.00;;;;;15.89;100.00;101334.22;5005244;28;46479;-82
2023/05/11 02:56:09;;;;;;;;;4.33;1.00;;;;;15.84;100.00;101328.03;5002763;28;45565;-81
2023/05/11 02:58:35;;;;;;;;;3.00;1.00;;;;;15.78;100.00;101323.59;5009029;28;45423;-82
2023/05/11 03:01:01;;;;;;;;;3.33;0.33;;;;;15.77;100.00;101328.94;5024080;28;45595;-82
2023/05/11 03:03:27;;;;;;;;;1.00;1.00;;;;;15.71;100.00;101328.06;5014267;28;46816;-82
2023/05/11 03:05:52;;;;;;;;;3.00;1.00;;;;;15.64;100.00;101323.63;5022522;28;45475;-82
2023/05/11 03:08:18;;;;;;;;;2.00;1.00;;;;;15.59;100.00;101321.81;5024948;28;61347;-83
2023/05/11 03:10:44;;;;;;;;;3.00;1.00;;;;;15.50;100.00;101322.75;5004628;28;45408;-82
2023/05/11 03:13:10;;;;;;;;;1.33;0.00;;;;;15.44;100.00;101323.59;5014634;28;47349;-82
2023/05/11 03:15:37;;;;;;;;;5.00;1.00;;;;;15.42;100.00;101324.50;5034795;28;45476;-82
2023/05/11 03:18:03;;;;;;;;;1.00;1.00;;;;;15.41;100.00;101322.75;5016722;28;45438;-82
2023/05/11 03:20:29;;;;;;;;;2.00;1.00;;;;;15.38;100.00;101315.63;5004368;28;45463;-81
2023/05/11 03:22:55;;;;;;;;;1.00;1.00;;;;;15.39;100.00;101317.44;5012930;28;48007;-81
2023/05/11 03:25:22;;;;;;;;;2.00;1.00;;;;;15.37;100.00;101321.84;5023729;28;45359;-82
2023/05/11 03:27:49;;;;;;;;;1.67;1.67;;;;;15.36;100.00;101319.22;5008049;28;45331;-82
2023/05/11 03:30:16;;;;;;;;;1.00;1.00;;;;;15.32;100.00;101320.09;5018381;28;45482;-82
2023/05/11 03:32:41;;;;;;;;;3.00;1.00;;;;;15.30;100.00;101325.41;5012662;28;64134;-81
2023/05/11 03:35:07;;;;;;;;;3.00;1.33;;;;;15.28;100.00;101321.84;5016629;28;51076;-82
2023/05/11 03:37:36;;;;;;;;;2.00;1.00;;;;;15.29;100.00;101322.78;4987017;28;45430;-82
2023/05/11 03:40:02;;;;;;;;;2.00;0.33;;;;;15.29;100.00;101317.44;4996237;28;45664;-81
2023/05/11 03:42:29;;;;;;;;;2.00;1.00;;;;;15.29;100.00;101321.00;5002507;28;46815;-82
2023/05/11 03:44:58;;;;;;;;;1.33;1.00;;;;;15.27;100.00;101322.75;5003487;28;45425;-82
2023/05/11 03:47:26;;;;;;;;;2.00;1.00;;;;;15.25;100.00;101313.88;4986762;28;45666;-82
2023/05/11 03:49:52;;;;;;;;;3.67;1.00;;;;;15.25;100.00;101313.00;5006505;28;45503;-82
2023/05/11 03:52:18;;;;;;;;;1.33;1.00;;;;;15.27;100.00;101319.19;5025884;28;45847;-82
2023/05/11 03:54:44;;;;;;;;;1.33;1.00;;;;;15.27;100.00;101322.75;5004785;28;45492;-82
2023/05/11 03:57:10;;;;;;;;;2.33;1.00;;;;;15.27;100.00;101320.09;5020232;28;45487;-82
2023/05/11 03:59:38;;;;;;;;;2.33;1.00;;;;;15.25;100.00;101321.00;4988726;28;45402;-82
2023/05/11 04:02:03;;;;;;;;;1.00;1.00;;;;;15.22;100.00;101319.19;5023652;28;47541;-82
2023/05/11 04:04:29;;;;;;;;;1.00;1.00;;;;;15.22;100.00;101319.19;5003948;28;45583;-82
2023/05/11 04:06:55;;;;;;;;;5.00;1.00;;;;;15.20;100.00;101319.22;5021223;28;45293;-82
2023/05/11 04:09:21;;;;;;;;;4.33;2.00;;;;;15.19;100.00;101314.78;5018410;28;45536;-81
2023/05/11 04:11:46;;;;;;;;;2.00;1.33;;;;;15.20;100.00;101315.66;5007755;28;47862;-81
2023/05/11 04:14:12;;;;;;;;;3.00;1.33;;;;;15.19;100.00;101317.44;5028378;28;48971;-82
2023/05/11 04:16:37;;;;;;;;;4.67;2.00;;;;;15.14;100.00;101313.88;5024980;28;45523;-81
2023/05/11 04:19:02;;;;;;;;;4.00;1.00;;;;;15.12;100.00;101312.09;5026259;28;45600;-83
2023/05/11 04:21:28;;;;;;;;;3.00;1.00;;;;;15.11;100.00;101324.53;5015368;28;45615;-82
2023/05/11 04:23:53;;;;;;;;;1.67;1.00;;;;;15.12;100.00;101312.09;5006203;28;46441;-82
2023/05/11 04:26:18;;;;;;;;;1.00;1.00;;;;;15.08;100.00;101303.25;5019962;28;45535;-82
2023/05/11 04:28:44;;;;;;;;;1.00;1.00;;;;;15.10;100.00;101306.78;5028539;28;57145;-82
2023/05/11 04:31:09;;;;;;;;;3.33;1.00;;;;;15.07;100.00;101306.78;4998367;28;56698;-82
2023/05/11 04:33:34;;;;;;;;;1.00;1.00;;;;;15.04;100.00;101304.13;5025301;28;45247;-81
2023/05/11 04:36:00;;;;;;;;;2.00;1.00;;;;;15.03;100.00;101312.13;5015193;28;50118;-82
2023/05/11 04:38:25;;;;;;;;;4.00;1.00;;;;;15.03;100.00;101312.13;5027374;28;53781;-83
2023/05/11 04:40:50;;;;;;;;;1.00;1.00;;;;;14.98;100.00;101305.91;5020270;28;46388;-82
2023/05/11 04:43:17;;;;;;;;;2.00;2.00;;;;;14.99;100.00;101324.53;4997988;28;51342;-81
2023/05/11 04:45:51;;;;;;;;;1.67;1.67;;;;;14.98;100.00;101305.91;5004405;28;45384;-83
2023/05/11 04:48:17;;;;;;;;;2.00;2.00;;;;;15.03;100.00;101312.13;4987108;28;45353;-81
2023/05/11 04:50:42;;;;;;;;;1.00;1.00;;;;;15.04;100.00;101313.88;5025169;28;47363;-82
2023/05/11 04:53:08;;;;;;;;;1.33;1.33;;;;;15.07;100.00;101317.41;5023148;28;45491;-82
2023/05/11 04:55:34;;;;;;;;;1.67;1.67;;;;;15.09;100.00;101310.34;5021612;28;45348;-81
2023/05/11 04:57:59;;;;;;;;;1.67;1.67;;;;;15.11;100.00;101319.19;5025300;28;45459;-82
2023/05/11 05:00:24;;;;;;;;;2.00;2.00;;;;;15.14;100.00;101321.88;5030507;28;47374;-82
2023/05/11 05:02:50;;;;;;;;;2.00;2.00;;;;;15.13;100.00;101317.44;5018914;28;45365;-82
2023/05/11 05:05:16;;;;;;;;;3.00;2.00;;;;;15.12;100.00;101315.66;5011009;28;45630;-81
2023/05/11 05:07:41;;;;;;;;;2.00;2.00;;;;;15.12;100.00;101322.75;5018782;28;45385;-82
2023/05/11 05:10:08;;;;;;;;;3.67;2.00;;;;;15.14;100.00;101321.00;4991761;28;51364;-82
2023/05/11 05:12:36;;;;;;;;;2.33;2.33;;;;;15.15;100.00;101330.72;5029857;28;45493;-83
2023/05/11 05:15:02;;;;;;;;;5.00;2.00;;;;;15.15;100.00;101320.97;5024857;28;45290;-81
2023/05/11 05:17:28;;;;;;;;;2.00;2.00;;;;;15.15;100.00;101328.06;5022958;28;46615;-82
2023/05/11 05:19:53;;;;;;;;;0.67;0.67;;;;;15.14;100.00;101334.28;5023109;28;46606;-82
2023/05/11 05:22:19;;;;;;;;;3.00;2.00;;;;;15.15;100.00;101330.72;5019615;28;45288;-82
2023/05/11 05:24:44;;;;;;;;;4.67;2.00;;;;;15.16;100.00;101348.47;5002531;28;45784;-82
2023/05/11 05:27:09;;;;;;;;;3.00;1.67;;;;;15.17;100.00;101334.28;5010645;28;45778;-83
2023/05/11 05:29:35;;;;;;;;;4.00;3.00;;;;;15.18;100.00;101342.28;5023958;28;53504;-82
2023/05/11 05:32:00;;;;;;;;;3.00;3.00;;;;;15.18;100.00;101344.94;5018630;28;51960;-82
2023/05/11 05:34:25;;;;;;;;;3.00;2.00;;;;;15.21;100.00;101349.34;5014798;28;47221;-82
2023/05/11 05:36:51;;;;;;;;;4.33;0.67;;;;;15.22;100.00;101348.47;5030410;28;46079;-81
2023/05/11 05:39:16;;;;;;;;;4.00;2.00;;;;;15.22;100.00;101344.91;5017437;28;62048;-82
2023/05/11 05:41:42;;;;;;;;;3.33;2.00;;;;;15.22;100.00;101350.22;5028651;28;45301;-82
2023/05/11 05:44:07;;;;;;;;;4.33;2.67;;;;;15.25;100.00;101343.16;5025332;28;45504;-82
2023/05/11 05:46:33;;;;;;;;;5.67;2.67;;;;;15.29;100.00;101352.03;5019986;28;45337;-82
2023/05/11 05:48:58;;;;;;;;;2.33;1.00;;;;;15.29;100.00;101344.06;5019943;28;45641;-82
2023/05/11 05:51:23;;;;;;;;;5.00;3.33;;;;;15.29;100.00;101349.38;5017399;28;48770;-81
2023/05/11 05:53:49;;;;;;;;;2.00;2.00;;;;;15.28;100.00;101345.78;5020952;28;45977;-82
2023/05/11 05:56:14;;;;;;;;;4.00;3.00;;;;;15.30;100.00;101354.69;5009440;28;45422;-82
2023/05/11 05:58:40;;;;;;;;;4.67;3.00;;;;;15.30;100.00;101360.00;5022225;28;47096;-82
2023/05/11 06:01:05;;;;;;;;;3.33;2.33;;;;;15.32;100.00;101355.56;5018056;28;45524;-81
2023/05/11 06:03:31;;;;;;;;;2.33;2.33;;;;;15.37;100.00;101360.88;5017166;28;61088;-82
2023/05/11 06:05:56;;;;;;;;;3.67;2.00;;;;;15.38;100.00;101355.56;5009117;28;45261;-82
2023/05/11 06:08:21;;;;;;;;;3.00;3.00;;;;;15.41;100.00;101360.88;5016478;28;46612;-82
2023/05/11 06:10:47;;;;;;;;;3.00;2.00;;;;;15.46;100.00;101360.88;5013755;28;47467;-81
2023/05/11 06:13:12;;;;;;;;;3.00;3.00;;;;;15.52;100.00;101362.66;5022081;28;45356;-82
2023/05/11 06:15:37;;;;;;;;;3.00;3.00;;;;;15.53;100.00;101373.28;5016680;28;57532;-82
2023/05/11 06:18:03;;;;;;;;;2.33;2.33;;;;;15.57;100.00;101374.19;5021286;28;53706;-82
2023/05/11 06:20:30;;;;;;;;;1.67;1.67;;;;;15.60;100.00;101368.84;4987476;28;45352;-82
2023/05/11 06:22:56;;;;;;;;;3.00;3.00;;;;;15.63;100.00;101371.56;5017670;28;45380;-81
2023/05/11 06:25:21;;;;;;;;;3.67;3.67;;;;;15.64;100.00;101376.88;4999944;28;54112;-84
2023/05/11 06:27:46;;;;;;;;;5.00;3.33;;;;;15.68;100.00;101369.78;5021829;28;63490;-82
2023/05/11 06:30:12;;;;;;;;;4.00;3.00;;;;;15.73;100.00;101373.31;5019777;28;55612;-82
2023/05/11 06:32:37;;;;;;;;;3.00;3.00;;;;;15.80;100.00;101371.53;5027362;28;45235;-82
2023/05/11 06:35:03;;;;;;;;;3.00;2.00;;;;;15.84;100.00;101386.63;5001929;28;45716;-80
2023/05/11 06:37:29;;;;;;;;;7.00;2.00;;;;;15.87;100.00;101386.59;5020029;28;48334;-77
2023/05/11 06:39:54;;;;;;;;;3.33;3.00;;;;;15.88;100.00;101386.59;5010122;28;46159;-78
2023/05/11 06:42:22;;;;;;;;;3.00;3.00;;;;;15.91;100.00;101381.25;5017017;28;45418;-77
2023/05/11 06:44:47;;;;;;;;;4.00;4.00;;;;;15.91;100.00;101378.59;5031413;28;45466;-77
2023/05/11 06:47:13;;;;;;;;;4.67;3.00;;;;;15.91;100.00;101389.25;5015321;28;45656;-77
2023/05/11 06:49:38;;;;;;;;;3.00;3.00;;;;;15.94;100.00;101396.34;5007811;28;51173;-77
2023/05/11 06:52:03;;;;;;;;;4.00;3.33;;;;;15.94;100.00;101383.03;4991076;28;60327;-76
2023/05/11 06:54:29;;;;;;;;;3.33;2.00;;;;;15.96;100.00;101386.56;5023518;28;45226;-76
2023/05/11 06:56:54;;;;;;;;;4.00;3.00;;;;;15.96;100.00;101389.25;5016487;28;47242;-76
2023/05/11 06:59:19;;;;;;;;;5.67;3.33;;;;;16.00;100.00;101390.13;5022250;28;45443;-75
2023/05/11 07:01:45;;;;;;;;;4.67;3.00;;;;;16.05;100.00;101391.88;5028338;22;45950;-75
2023/05/11 07:04:11;;;;;;;;;4.33;4.00;;;;;16.06;100.00;101388.31;5053891;28;45544;-77
2023/05/11 07:06:36;;;;;;;;;7.67;3.33;;;;;16.07;100.00;101386.53;5045350;28;68877;-75
2023/05/11 07:09:02;;;;;;;;;6.67;3.33;;;;;16.11;100.00;101383.00;5049584;28;45282;-78
2023/05/11 07:11:29;;;;;;;;;5.67;4.00;;;;;16.15;100.00;101382.97;5055873;28;45444;-78
2023/05/11 07:13:54;;;;;;;;;5.67;3.00;;;;;16.19;100.00;101384.75;5045926;28;45398;-76
2023/05/11 07:16:20;;;;;;;;;3.67;3.00;;;;;16.21;100.00;101382.97;5056547;28;50530;-75
2023/05/11 07:18:45;;;;;;;;;5.00;3.00;;;;;16.22;100.00;101384.72;5049060;28;45504;-78
2023/05/11 07:21:11;;;;;;;;;9.00;4.00;;;;;16.24;100.00;101385.63;5054027;28;45382;-77
2023/05/11 07:23:36;;;;;;;;;6.33;3.67;;;;;16.22;100.00;101386.50;5048346;28;45397;-77
2023/05/11 07:26:07;;;;;;;;;4.67;3.00;;;;;16.25;100.00;101378.50;5055036;28;46718;-77
2023/05/11 07:28:33;;;;;;;;;7.00;4.00;;;;;16.31;100.00;101377.59;5053775;28;45494;-76
2023/05/11 07:30:58;;;;;;;;;7.33;5.00;;;;;16.40;100.00;101382.88;5049699;28;45716;-76
2023/05/11 07:33:23;;;;;;;;;10.00;4.00;;;;;16.45;100.00;101384.63;5050715;28;58210;-76
2023/05/11 07:35:50;;;;;;;;;6.00;4.33;;;;;16.52;100.00;101382.84;5052663;28;45643;-77
2023/05/11 07:38:17;;;;;;;;;5.67;5.00;;;;;16.55;100.00;101387.25;5052930;28;45327;-76
2023/05/11 07:40:42;;;;;;;;;6.33;6.00;;;;;16.58;100.00;101387.25;5056161;28;45276;-78
2023/05/11 07:43:08;;;;;;;;;7.00;5.00;;;;;16.64;100.00;101379.22;5055409;28;45536;-77
2023/05/11 07:45:33;;;;;;;;;5.33;4.33;;;;;16.73;100.00;101384.56;5053163;28;46620;-75
2023/05/11 07:47:58;;;;;;;;;4.33;3.33;;;;;16.77;100.00;101391.63;5050071;28;45514;-75
2023/05/11 07:50:24;;;;;;;;;9.33;4.00;;;;;16.84;100.00;101388.03;5048851;28;48581;-76
2023/05/11 07:52:49;;;;;;;;;9.67;5.00;;;;;16.87;100.00;101385.34;5053219;28;45509;-76
2023/05/11 07:55:14;;;;;;;;;4.00;4.00;;;;;16.93;100.00;101387.06;5053131;28;60767;-76
2023/05/11 07:57:40;;;;;;;;;8.33;5.00;;;;;16.97;100.00;101388.84;5054841;28;46861;-76
2023/05/11 08:00:06;;;;;;;;;8.33;5.00;;;;;17.02;100.00;101389.69;5049719;28;45450;-76
2023/05/11 08:02:32;;;;;;;;;5.33;4.00;;;;;17.03;100.00;101388.78;5049945;28;45457;-76
2023/05/11 08:04:57;;;;;;;;;5.33;5.33;;;;;17.04;100.00;101385.22;5050776;28;46396;-77
2023/05/11 08:07:23;;;;;;;;;5.00;4.00;;;;;17.04;100.00;101382.56;5051955;28;55764;-77
2023/05/11 08:09:48;;;;;;;;;5.67;5.00;;;;;17.10;100.00;101382.53;5051954;28;45464;-75
2023/05/11 08:12:14;;;;;;;;;5.67;4.67;;;;;17.17;100.00;101389.59;5061220;28;45446;-77
2023/05/11 08:14:41;;;;;;;;;5.67;5.67;;;;;17.23;100.00;101383.31;5061281;28;47647;-78
2023/05/11 08:17:07;;;;;;;;;5.00;4.00;;;;;17.29;100.00;101375.25;5053817;28;45296;-79
2023/05/11 08:19:32;;;;;;;;;5.33;5.00;;;;;17.35;100.00;101371.66;5053410;28;45190;-78
2023/05/11 08:21:59;;;;;;;;;6.00;6.00;;;;;17.36;100.00;101376.09;5048898;28;45526;-78
2023/05/11 08:24:25;;;;;;;;;6.33;5.33;;;;;17.39;100.00;101376.97;5050325;28;46249;-78
2023/05/11 08:26:50;;;;;;;;;6.00;4.67;;;;;17.43;100.00;101376.03;5051466;28;49516;-80
2023/05/11 08:29:15;;;;;;;;;6.33;6.33;;;;;17.49;100.00;101377.78;5049566;28;48403;-80
2023/05/11 08:31:41;;;;;;;;;4.00;4.00;;;;;17.54;100.00;101374.16;5049846;28;45509;-78
2023/05/11 08:34:09;;;;;;;;;9.00;5.67;;;;;17.57;100.00;101385.72;5055173;28;45318;-80
2023/05/11 08:36:35;;;;;;;;;6.00;4.00;;;;;17.60;100.00;101383.03;5058905;28;45346;-79
2023/05/11 08:39:00;;;;;;;;;7.00;5.00;;;;;17.67;100.00;101390.06;5053227;28;45433;-78
2023/05/11 08:41:26;;;;;;;;;8.00;5.00;;;;;17.71;100.00;101381.13;5056225;28;45595;-78
2023/05/11 08:43:51;;;;;;;;;8.33;4.67;;;;;17.75;100.00;101380.25;5052495;28;46404;-79
2023/05/11 08:46:21;;;;;;;;;7.00;6.00;;;;;17.78;100.00;101389.09;5051057;28;45624;-79
2023/05/11 08:48:46;;;;;;;;;6.00;4.00;;;;;17.85;100.00;101384.59;5056010;28;45769;-80
2023/05/11 08:51:11;;;;;;;;;8.00;5.67;;;;;17.86;100.00;101385.47;5042128;28;47765;-79
2023/05/11 08:53:37;;;;;;;;;8.33;5.00;;;;;17.86;100.00;101381.03;5053862;28;47072;-79
2023/05/11 08:56:05;;;;;;;;;6.67;4.00;;;;;17.89;100.00;101378.28;5052351;28;45723;-79
2023/05/11 08:58:32;;;;;;;;;6.00;6.00;;;;;17.95;100.00;101380.94;5041516;28;45256;-78
2023/05/11 09:00:58;;;;;;;;;5.33;4.00;;;;;18.06;100.00;101378.13;5045958;28;45479;-79
2023/05/11 09:03:23;;;;;;;;;7.00;5.00;;;;;18.22;100.00;101384.19;5053977;28;68584;-80
2023/05/11 09:05:49;;;;;;;;;7.67;6.00;;;;;18.29;100.00;101381.41;5045864;28;45489;-79
2023/05/11 09:08:17;;;;;;;;;7.00;7.00;;;;;18.33;100.00;101384.97;5047546;28;45373;-79
2023/05/11 09:10:43;;;;;;;;;8.00;6.33;;;;;18.37;100.00;101372.41;5055091;28;45378;-78
2023/05/11 09:13:09;;;;;;;;;8.67;7.33;;;;;18.36;100.00;101374.19;5054858;28;46516;-79
2023/05/11 09:15:35;;;;;;;;;7.00;7.00;;;;;18.39;100.00;101375.97;5049922;28;45606;-78
2023/05/11 09:18:01;;;;;;;;;7.33;5.00;;;;;18.41;100.00;101374.16;5053201;28;58157;-78
2023/05/11 09:20:28;;;;;;;;;4.00;4.00;;;;;18.42;100.00;101374.13;5044667;28;45559;-78
2023/05/11 09:22:54;;;;;;;;;7.00;4.00;;;;;18.45;100.00;101382.13;5050026;28;48429;-81
2023/05/11 09:25:20;;;;;;;;;5.67;5.67;;;;;18.48;100.00;101381.19;5051896;28;45512;-78
2023/05/11 09:27:46;;;;;;;;;4.67;4.67;;;;;18.56;100.00;101380.19;5071409;28;45444;-78
2023/05/11 09:30:20;;;;;;;;;7.33;5.00;;;;;18.68;100.00;101373.81;5058417;28;45342;-78
2023/05/11 09:32:57;;;;;;;;;5.33;5.00;;;;;18.86;100.00;101371.81;5056549;28;47193;-79
2023/05/11 09:35:22;;;;;;;;;5.33;5.00;;;;;18.95;100.00;101374.31;5053764;28;45476;-77
2023/05/11 09:38:02;;;;;;;;;5.33;4.00;;;;;19.05;100.00;101382.19;5052104;28;45393;-79
2023/05/11 09:40:28;;;;;;;;;4.33;4.00;;;;;19.08;100.00;101378.59;5049721;28;46948;-78
2023/05/11 09:42:53;;;;;;;;;11.00;5.67;;;;;19.10;100.00;101371.41;5051828;28;46629;-77
2023/05/11 09:45:41;;;;;;;;;5.00;5.00;;;;;19.14;100.00;101369.59;5050577;28;47150;-79
2023/05/11 09:48:15;;;;;;;;;6.00;5.00;;;;;19.22;100.00;101362.31;5055864;28;45497;-79
2023/05/11 09:50:41;;;;;;;;;6.67;5.00;;;;;19.30;100.00;101372.00;5055037;28;45341;-77
2023/05/11 09:53:06;;;;;;;;;4.67;3.33;;;;;19.38;100.00;101369.16;5047116;28;46415;-79
2023/05/11 09:55:32;;;;;;;;;6.67;4.33;;;;;19.45;100.00;101369.97;5053793;28;45354;-80
2023/05/11 09:57:58;;;;;;;;;6.33;3.33;;;;;19.48;100.00;101369.91;5051194;28;45503;-78
2023/05/11 10:00:24;;;;;;;;;4.00;4.00;;;;;19.48;100.00;101362.75;5056688;28;45399;-79
2023/05/11 10:03:04;;;;;;;;;5.33;2.67;;;;;19.51;100.00;101365.41;5039205;28;66819;-77
2023/05/11 10:05:31;;;;;;;;;7.33;5.00;;;;;19.54;100.00;101365.31;5052989;28;45616;-77
2023/05/11 10:07:58;;;;;;;;;5.67;4.00;;;;;19.60;100.00;101361.69;5055530;28;45318;-78
2023/05/11 10:10:26;;;;;;;;;7.33;5.00;;;;;19.66;100.00;101348.19;5053147;28;45556;-77
2023/05/11 10:12:52;;;;;;;;;5.00;5.00;;;;;19.77;100.00;101353.38;5044766;28;46495;-78
2023/05/11 10:15:24;;;;;;;;;3.33;3.33;;;;;19.80;100.00;101355.97;5064740;28;68204;-78
2023/05/11 10:17:49;;;;;;;;;2.33;2.33;;;;;19.80;100.00;101342.56;5072503;28;45362;-77
2023/05/11 10:20:15;;;;;;;;;3.33;3.33;;;;;19.81;100.00;101347.00;5057207;28;45347;-77
2023/05/11 10:22:41;;;;;;;;;4.33;4.00;;;;;19.76;100.00;101344.44;5055254;28;47230;-78
2023/05/11 10:25:07;;;;;;;;;6.00;4.33;;;;;19.63;100.00;101343.78;5057218;28;45437;-78
2023/05/11 10:27:32;;;;;;;;;4.67;3.67;;;;;19.58;100.00;101342.06;5053413;28;45305;-77
2023/05/11 10:29:58;;;;;;;;;5.00;4.00;;;;;19.57;100.00;101343.84;5052349;28;47285;-78
2023/05/11 10:32:24;;;;;;;;;4.00;4.00;;;;;19.57;100.00;101340.28;5046295;28;47320;-77
2023/05/11 10:34:49;;;;;;;;;7.67;3.00;;;;;19.53;100.00;101342.13;5046750;28;55997;-77
2023/05/11 10:37:15;;;;;;;;;4.33;3.67;;;;;19.52;100.00;101342.16;5043413;28;45496;-78
2023/05/11 10:39:43;;;;;;;;;3.00;3.00;;;;;19.51;100.00;101348.44;5046105;28;45536;-79
2023/05/11 10:42:37;;;;;;;;;4.33;3.00;;;;;19.42;100.00;101337.88;5056201;28;47730;-77
2023/05/11 10:45:25;;;;;;;;;4.00;2.67;;;;;19.30;100.00;101339.84;5050916;28;45485;-77
2023/05/11 10:48:45;;;;;;;;;4.33;4.33;;;;;19.24;100.00;101339.97;5058022;28;45595;-78
2023/05/11 10:51:19;;;;;;;;;3.67;2.33;;;;;19.19;100.00;101343.63;4993166;28;46270;-75
2023/05/11 10:54:20;;;;;;;;;4.33;3.33;;;;;19.15;100.00;101337.44;5039116;28;46383;-76
2023/05/11 10:57:10;;;;;;;;;3.33;3.33;;;;;19.12;100.00;101340.16;5049036;28;45498;-77
2023/05/11 10:59:51;;;;;;;;;4.33;3.00;;;;;19.08;100.00;101343.81;5053226;28;45290;-76
2023/05/11 11:02:17;;;;;;;;;3.33;3.00;;;;;19.04;100.00;101329.56;5041820;28;45275;-75
2023/05/11 11:04:50;;;;;;;;;7.33;3.00;;;;;19.06;100.00;101340.25;5044055;28;46893;-77
2023/05/11 11:07:18;;;;;;;;;2.67;2.33;;;;;19.06;100.00;101333.09;5048084;28;45488;-76
2023/05/11 11:09:51;;;;;;;;;6.00;4.67;;;;;19.04;100.00;101342.97;5041581;28;45390;-76
2023/05/11 11:12:16;;;;;;;;;4.00;3.00;;;;;18.95;100.00;101328.84;5047388;28;45456;-77
2023/05/11 11:15:05;;;;;;;;;6.00;4.00;;;;;18.86;100.00;101334.34;5047173;28;46628;-76
2023/05/11 11:17:33;;;;;;;;;4.00;3.00;;;;;18.77;100.00;101336.25;5043280;28;45461;-77